首页
METAR-TAF:

METAR-TAF

机场 :

金斯顿, 安大略省, 加拿大

纬度: 44-13N, 经度: 076-36W, 海拔: 93米

当前天气观测

该预报发布于4小时和47分钟前的04:00 UTC
风速19节,风向,有时为29节阵风
温度 0°C
湿度 59%
气压 1028 hPa
能見度: 24.1公里
阴天层高于21000英尺

METAR: CYGK 130400Z 17019G29KT 15SM OVC210 00/M07 A3037 RMK CI8 LAST STFD OBS / NXT 131100Z SLP290

时间: 03:47 (08:47 UTC)

预报

该预报发布于7小时和9分钟前的01:38 UTC
预报有效从13日的 02点(UTC)到 13日的 04点(UTC)
风速12节,风向
能見度: 10公里
少量云层高于3000英尺
多云层高于22000英尺

TAF: CYGK 130138Z 1302/1304 17012KT P6SM FEW030 BKN220 RMK NXT FCST WILL BE ISSUED AT 131245Z

超过4000个机场的气象观测和天气预报(METAR&TAF报告)。

可查询的气象台以黄色和红色小点在地图上表示。

将鼠标移到小点上方,可查看气象台名称。

然后点击查看天气观测和预报。

如需切换地图:点击带黑十字的绿色按钮放大地图;点击带横线的绿色按钮缩小地图;或者点击绿色箭头查看邻近地区的地图。


METAR-TAF: